Time;durP1;ratioP1;P1;durP2;ratioP2;P2;SDS_P1;SDS_P2;PMS_P1;PMS_P2;Temp;Humidity;BMP_temperature;BMP_pressure;BME280_temperature;BME280_humidity;BME280_pressure;Samples;Min_cycle;Max_cycle;Signal;HPM_P1;HPM_P2
2022/04/18 00:00:37;;;;;;;18.15;12.23;;;;;;;;;;5088678;27;20419;-67
2022/04/18 00:03:04;;;;;;;17.70;12.05;;;;;;;;;;5066465;28;20489;-67
2022/04/18 00:05:34;;;;;;;16.45;11.60;;;;;;;;;;5068948;28;20432;-67
2022/04/18 00:08:01;;;;;;;17.63;11.93;;;;;;;;;;5067700;28;20484;-67
2022/04/18 00:10:27;;;;;;;16.38;11.98;;;;;;;;;;5073849;28;20475;-67
2022/04/18 00:12:53;;;;;;;16.25;11.88;;;;;;;;;;5071301;27;20431;-67
2022/04/18 00:15:19;;;;;;;17.63;12.53;;;;;;;;;;5075755;27;20538;-67
2022/04/18 00:17:45;;;;;;;19.20;12.57;;;;;;;;;;5067257;28;20420;-67
2022/04/18 00:20:12;;;;;;;17.15;12.45;;;;;;;;;;5073518;28;20653;-67
2022/04/18 00:22:37;;;;;;;17.23;12.57;;;8.70;99.90;;;;;;5055844;27;20430;-66
2022/04/18 00:25:04;;;;;;;16.77;12.17;;;;;;;;;;5072280;28;20495;-67
2022/04/18 00:27:30;;;;;;;18.25;13.07;;;;;;;;;;5073525;28;20972;-67
2022/04/18 00:29:56;;;;;;;18.52;12.57;;;;;;;;;;5068198;28;20946;-68
2022/04/18 00:32:21;;;;;;;18.25;12.43;;;8.50;99.90;;;;;;5073887;28;20427;-67
2022/04/18 00:34:47;;;;;;;15.33;11.97;;;;;;;;;;5068065;28;20499;-66
2022/04/18 00:37:13;;;;;;;17.67;12.75;;;;;;;;;;5055678;27;20447;-67
2022/04/18 00:39:39;;;;;;;17.77;12.57;;;;;;;;;;5071149;28;20432;-67
2022/04/18 00:42:06;;;;;;;17.60;12.90;;;;;;;;;;5071893;28;20472;-67
2022/04/18 00:44:32;;;;;;;18.20;13.40;;;;;;;;;;5064821;27;21179;-67
2022/04/18 00:46:58;;;;;;;19.23;13.43;;;;;;;;;;5073579;28;20423;-67
2022/04/18 00:49:24;;;;;;;17.45;12.88;;;;;;;;;;5058115;28;20420;-67
2022/04/18 00:51:50;;;;;;;18.08;12.88;;;8.40;99.90;;;;;;5052403;27;20479;-67
2022/04/18 00:54:16;;;;;;;18.33;12.77;;;;;;;;;;5068332;28;20427;-67
2022/04/18 00:56:42;;;;;;;16.80;12.40;;;;;;;;;;5068660;28;21252;-67
2022/04/18 00:59:09;;;;;;;17.60;12.52;;;;;;;;;;5067474;27;20471;-68
2022/04/18 01:01:36;;;;;;;16.45;12.52;;;8.30;99.90;;;;;;5065170;27;20440;-67
2022/04/18 01:04:03;;;;;;;17.92;12.40;;;;;;;;;;5069021;28;20441;-68
2022/04/18 01:06:29;;;;;;;16.15;12.27;;;;;;;;;;5072091;28;20423;-67
2022/04/18 01:08:55;;;;;;;17.70;12.40;;;;;;;;;;5069857;28;21256;-67
2022/04/18 01:11:21;;;;;;;16.98;12.52;;;;;;;;;;5060722;27;20430;-68
2022/04/18 01:13:48;;;;;;;16.73;12.55;;;;;;;;;;5055338;27;20414;-68
2022/04/18 01:16:14;;;;;;;16.47;12.17;;;;;;;;;;5055367;28;20432;-67
2022/04/18 01:18:40;;;;;;;16.38;12.45;;;;;;;;;;5073387;28;20419;-67
2022/04/18 01:21:07;;;;;;;19.98;12.45;;;;;;;;;;5069993;28;20488;-67
2022/04/18 01:23:33;;;;;;;16.73;12.50;;;;;;;;;;5071482;28;21105;-67
2022/04/18 01:28:59;;;;;;;18.05;11.77;;;;;;;;;;5072039;28;20420;-67
2022/04/18 01:31:26;;;;;;;16.33;12.15;;;;;;;;;;5071425;27;20423;-67
2022/04/18 01:33:53;;;;;;;16.42;11.90;;;;;;;;;;5071120;28;20453;-67
2022/04/18 01:36:19;;;;;;;16.90;11.75;;;;;;;;;;5105485;27;20479;-66
2022/04/18 01:38:45;;;;;;;18.08;12.20;;;;;;;;;;5096743;27;20481;-67
2022/04/18 01:41:11;;;;;;;16.02;11.57;;;8.10;99.90;;;;;;5094211;27;20423;-67
2022/04/18 01:43:37;;;;;;;16.88;11.40;;;;;;;;;;5080088;27;20427;-67
2022/04/18 01:46:04;;;;;;;16.70;11.90;;;;;;;;;;5070870;28;20429;-67
2022/04/18 01:48:30;;;;;;;17.85;11.80;;;;;;;;;;5073308;28;20451;-66
2022/04/18 01:50:56;;;;;;;15.93;12.10;;;;;;;;;;5069411;28;20431;-67
2022/04/18 01:53:22;;;;;;;15.77;11.83;;;8.10;99.90;;;;;;5110021;27;20506;-67
2022/04/18 01:55:49;;;;;;;16.67;12.20;;;;;;;;;;5063145;28;20523;-67
2022/04/18 01:58:15;;;;;;;15.63;11.90;;;;;;;;;;5064818;28;20432;-67
2022/04/18 02:00:41;;;;;;;16.60;12.18;;;;;;;;;;5070966;28;20425;-67
2022/04/18 02:03:07;;;;;;;15.20;11.50;;;;;;;;;;5072624;28;20467;-67
2022/04/18 02:05:33;;;;;;;15.73;11.32;;;;;;;;;;5068832;28;21014;-66
2022/04/18 02:08:00;;;;;;;15.93;12.07;;;;;;;;;;5065637;28;20496;-67
2022/04/18 02:10:26;;;;;;;16.17;12.00;;;;;;;;;;5073035;27;20468;-67
2022/04/18 02:12:52;;;;;;;15.43;11.85;;;;;;;;;;5048588;28;20423;-67
2022/04/18 02:15:19;;;;;;;15.73;11.80;;;;;;;;;;5066099;28;20420;-67
2022/04/18 02:17:45;;;;;;;15.18;11.55;;;;;;;;;;5053923;28;20544;-67
2022/04/18 02:20:11;;;;;;;16.00;12.13;;;;;;;;;;5064151;28;20453;-67
2022/04/18 02:22:37;;;;;;;16.88;12.27;;;7.80;99.90;;;;;;5064046;28;20446;-66
2022/04/18 02:25:03;;;;;;;15.93;12.00;;;;;;;;;;5068986;27;20510;-67
2022/04/18 02:27:29;;;;;;;16.33;11.82;;;;;;;;;;5066247;28;20439;-66
2022/04/18 02:29:55;;;;;;;16.38;12.02;;;;;;;;;;5070067;27;20412;-66
2022/04/18 02:35:06;;;;;;;17.90;12.05;;;;;;;;;;5068725;28;20844;-66
2022/04/18 02:37:32;;;;;;;16.00;11.70;;;;;;;;;;5021629;28;20466;-66
2022/04/18 02:39:59;;;;;;;18.65;12.18;;;7.40;99.90;;;;;;5070027;28;20427;-66
2022/04/18 02:42:26;;;;;;;16.75;12.65;;;;;;;;;;5066306;28;20424;-66
2022/04/18 02:44:52;;;;;;;16.95;11.95;;;;;;;;;;5070387;27;20774;-66
2022/04/18 02:47:18;;;;;;;18.42;12.65;;;;;;;;;;5069821;28;20437;-66
2022/04/18 02:49:44;;;;;;;16.30;11.77;;;;;;;;;;5071559;28;20769;-67
2022/04/18 02:52:10;;;;;;;16.73;12.40;;;;;;;;;;5069777;27;20430;-65
2022/04/18 02:54:36;;;;;;;16.77;12.15;;;;;;;;;;5064966;28;20427;-67
2022/04/18 02:57:02;;;;;;;16.73;12.13;;;;;;;;;;5069316;27;20420;-66
2022/04/18 02:59:28;;;;;;;16.50;12.07;;;;;;;;;;5068259;28;20420;-66
2022/04/18 03:01:54;;;;;;;16.98;12.88;;;;;;;;;;5054396;27;20424;-66
2022/04/18 03:04:20;;;;;;;18.40;12.35;;;;;;;;;;5050808;27;20986;-67
2022/04/18 03:06:46;;;;;;;17.08;12.23;;;;;;;;;;5073368;28;20449;-67
2022/04/18 03:09:15;;;;;;;15.90;11.70;;;;;;;;;;5067956;28;20412;-66
2022/04/18 03:11:41;;;;;;;16.40;11.68;;;;;;;;;;5067754;28;20977;-66
2022/04/18 03:14:07;;;;;;;15.93;12.15;;;;;;;;;;5061674;27;21644;-66
2022/04/18 03:16:33;;;;;;;17.27;12.32;;;;;;;;;;5065214;28;20424;-67
2022/04/18 03:18:59;;;;;;;15.35;11.60;;;;;;;;;;5073306;28;20416;-67
2022/04/18 03:21:25;;;;;;;21.02;11.43;;;;;;;;;;5069465;28;20416;-67
2022/04/18 03:23:52;;;;;;;16.77;11.97;;;;;;;;;;5067677;28;20929;-66
2022/04/18 03:26:18;;;;;;;15.93;11.68;;;;;;;;;;5066733;28;20945;-66
2022/04/18 03:28:44;;;;;;;17.50;12.13;;;;;;;;;;5071840;28;20437;-67
2022/04/18 03:31:11;;;;;;;16.75;11.98;;;7.00;99.90;;;;;;5067161;28;20472;-66
2022/04/18 03:33:37;;;;;;;15.18;11.25;;;;;;;;;;5068317;28;20462;-66
2022/04/18 03:41:32;;;;;;;17.67;12.02;;;7.10;99.90;;;;;;5067820;27;20415;-67
2022/04/18 03:43:58;;;;;;;15.60;12.00;;;6.50;99.90;;;;;;5050133;28;20944;-65
2022/04/18 03:46:25;;;;;;;16.38;11.60;;;;;;;;;;5074080;28;20407;-67
2022/04/18 03:48:50;;;;;;;17.15;11.98;;;6.80;99.90;;;;;;5075074;28;20468;-66
2022/04/18 03:51:16;;;;;;;16.43;11.60;;;6.60;99.90;;;;;;5073976;28;20518;-67
2022/04/18 03:53:42;;;;;;;16.20;11.90;;;;;;;;;;5071716;28;20427;-67
2022/04/18 03:56:08;;;;;;;17.63;12.07;;;;;;;;;;5067792;28;20419;-67
2022/04/18 03:58:34;;;;;;;16.85;11.45;;;;;;;;;;5073782;28;20423;-67
2022/04/18 04:01:00;;;;;;;15.57;11.23;;;;;;;;;;5074765;28;20416;-67
2022/04/18 04:03:26;;;;;;;17.20;11.88;;;;;;;;;;5073701;28;20432;-67
2022/04/18 04:05:56;;;;;;;17.25;11.57;;;;;;;;;;5073540;28;20473;-66
2022/04/18 04:08:25;;;;;;;17.90;12.05;;;;;;;;;;5065552;28;20427;-67
2022/04/18 04:10:52;;;;;;;16.80;12.00;;;;;;;;;;5074082;28;20447;-67
2022/04/18 04:13:18;;;;;;;16.35;11.70;;;;;;;;;;5070788;28;20955;-67
2022/04/18 04:15:44;;;;;;;15.27;11.38;;;;;;;;;;5070991;28;20458;-67
2022/04/18 04:18:10;;;;;;;16.23;11.60;;;;;;;;;;5070976;28;20460;-67
2022/04/18 04:20:37;;;;;;;17.38;12.30;;;;;;;;;;5073831;28;20408;-68
2022/04/18 04:23:03;;;;;;;17.38;12.38;;;6.70;99.90;;;;;;5071616;28;20432;-68
2022/04/18 04:25:29;;;;;;;17.00;12.00;;;;;;;;;;5065840;28;21370;-67
2022/04/18 04:27:55;;;;;;;17.42;11.95;;;;;;;;;;5073797;28;20408;-68
2022/04/18 04:30:21;;;;;;;16.45;12.63;;;;;;;;;;5066275;28;20427;-66
2022/04/18 04:32:50;;;;;;;16.40;11.88;;;;;;;;;;5067535;27;20493;-67
2022/04/18 04:35:17;;;;;;;17.85;12.70;;;;;;;;;;5072887;28;20446;-66
2022/04/18 04:37:43;;;;;;;16.40;12.18;;;;;;;;;;5068159;27;20522;-67
2022/04/18 04:40:09;;;;;;;16.20;11.18;;;6.40;99.90;;;;;;5069097;28;20412;-67
2022/04/18 04:42:36;;;;;;;17.20;12.30;;;;;;;;;;5055330;27;20427;-66
2022/04/18 04:45:02;;;;;;;17.30;12.27;;;;;;;;;;5092118;27;20416;-67
2022/04/18 04:47:28;;;;;;;17.13;12.02;;;;;;;;;;5070705;28;20411;-67
2022/04/18 04:49:54;;;;;;;16.00;11.48;;;;;;;;;;5070700;27;20431;-66
2022/04/18 04:52:20;;;;;;;16.90;12.40;;;;;;;;;;5074402;28;20503;-67
2022/04/18 04:54:46;;;;;;;18.23;13.00;;;;;;;;;;5074366;28;20451;-67
2022/04/18 04:57:12;;;;;;;18.00;12.57;;;;;;;;;;5076309;28;20431;-66
2022/04/18 04:59:38;;;;;;;16.55;12.00;;;;;;;;;;5062648;28;20408;-67
2022/04/18 05:02:05;;;;;;;17.02;12.23;;;6.80;99.90;;;;;;5073493;28;20433;-65
2022/04/18 05:04:32;;;;;;;17.85;12.00;;;;;;;;;;5072317;27;20497;-68
2022/04/18 05:06:58;;;;;;;16.15;12.30;;;;;;;;;;5072853;28;20438;-67
2022/04/18 05:09:25;;;;;;;18.92;12.05;;;;;;;;;;5069243;28;20420;-67
2022/04/18 05:11:52;;;;;;;16.55;11.88;;;;;;;;;;5066205;28;20428;-67
2022/04/18 05:14:19;;;;;;;17.05;11.93;;;;;;;;;;5059507;27;20435;-67
2022/04/18 05:16:45;;;;;;;15.40;11.63;;;;;;;;;;5052496;28;20416;-67
2022/04/18 05:19:11;;;;;;;17.02;12.05;;;;;;;;;;5073821;28;20420;-67
2022/04/18 05:21:37;;;;;;;15.23;11.45;;;;;;;;;;5071995;28;20423;-67
2022/04/18 05:24:03;;;;;;;16.50;11.82;;;;;;;;;;5045960;28;22071;-66
2022/04/18 05:26:29;;;;;;;17.63;12.27;;;;;;;;;;5073122;28;20423;-67
2022/04/18 05:28:56;;;;;;;17.38;12.10;;;;;;;;;;5066173;28;20419;-68
2022/04/18 05:31:22;;;;;;;16.15;11.82;;;;;;;;;;5074050;28;20843;-68
2022/04/18 05:33:48;;;;;;;16.65;12.00;;;;;;;;;;5049792;27;20412;-67
2022/04/18 05:36:14;;;;;;;17.13;11.85;;;;;;;;;;5053693;27;20576;-67
2022/04/18 05:38:40;;;;;;;16.60;12.15;;;;;;;;;;5072469;28;20443;-68
2022/04/18 05:41:06;;;;;;;17.30;11.68;;;;;;;;;;5050760;27;20433;-67
2022/04/18 05:43:32;;;;;;;17.60;12.98;;;;;;;;;;5091732;27;20419;-66
2022/04/18 05:45:58;;;;;;;17.65;12.10;;;;;;;;;;5081704;27;20424;-67
2022/04/18 05:48:24;;;;;;;15.00;11.45;;;;;;;;;;5073744;28;20442;-67
2022/04/18 05:50:50;;;;;;;17.33;12.23;;;;;;;;;;5055004;28;20914;-68
2022/04/18 05:53:17;;;;;;;17.13;11.23;;;;;;;;;;5071037;28;20434;-67
2022/04/18 05:55:43;;;;;;;17.90;11.43;;;;;;;;;;5049207;28;20443;-67
2022/04/18 05:58:09;;;;;;;19.65;12.05;;;;;;;;;;5069021;28;20420;-67
2022/04/18 06:00:35;;;;;;;21.42;11.75;;;;;;;;;;5066244;28;20503;-67
2022/04/18 06:03:02;;;;;;;17.27;11.57;;;;;;;;;;5052689;27;20589;-67
2022/04/18 06:05:28;;;;;;;15.63;11.90;;;8.30;99.90;;;;;;5073459;28;20416;-66
2022/04/18 06:07:54;;;;;;;18.40;11.15;;;;;;;;;;5069044;28;20535;-68
2022/04/18 06:10:20;;;;;;;16.38;11.82;;;;;;;;;;5068838;28;20421;-66
2022/04/18 06:12:47;;;;;;;15.93;11.35;;;;;;;;;;5065530;27;20426;-67
2022/04/18 06:15:13;;;;;;;18.00;11.68;;;;;;;;;;5046284;28;20484;-67
2022/04/18 06:17:39;;;;;;;23.52;12.23;;;;;;;;;;5065729;27;20488;-67
2022/04/18 06:20:05;;;;;;;16.90;11.50;;;;;;;;;;5071042;28;20412;-67
2022/04/18 06:22:31;;;;;;;18.90;11.17;;;8.80;99.90;;;;;;5062530;27;20966;-67
2022/04/18 06:24:57;;;;;;;15.38;11.23;;;;;;;;;;5069011;28;20430;-67
2022/04/18 06:27:23;;;;;;;15.65;11.10;;;;;;;;;;5071573;28;20424;-66
2022/04/18 06:29:50;;;;;;;15.65;11.23;;;;;;;;;;5068706;28;20427;-68
2022/04/18 06:32:16;;;;;;;15.27;11.02;;;;;;;;;;5072408;28;20428;-68
2022/04/18 06:34:42;;;;;;;15.93;10.75;;;;;;;;;;5065204;28;20429;-67
2022/04/18 06:37:08;;;;;;;18.65;11.32;;;;;;;;;;5055019;28;20412;-67
2022/04/18 06:39:34;;;;;;;16.73;11.23;;;9.70;99.90;;;;;;5069730;28;20448;-67
2022/04/18 06:42:00;;;;;;;15.45;11.18;;;;;;;;;;5069838;28;20452;-67
2022/04/18 06:44:26;;;;;;;16.70;10.75;;;;;;;;;;5082990;27;20953;-67
2022/04/18 06:46:53;;;;;;;14.63;11.15;;;;;;;;;;5064665;28;20428;-67
2022/04/18 06:49:18;;;;;;;16.23;11.55;;;9.70;99.90;;;;;;5064756;28;20432;-68
2022/04/18 06:51:44;;;;;;;18.27;11.13;;;;;;;;;;5064592;28;20426;-67
2022/04/18 06:54:10;;;;;;;15.38;10.80;;;;;;;;;;5054861;28;20416;-68
2022/04/18 06:59:21;;;;;;;16.10;11.10;;;;;;;;;;5060194;28;20814;-68
2022/04/18 07:01:47;;;;;;;14.18;10.43;;;;;;;;;;5066699;28;20455;-68
2022/04/18 07:04:13;;;;;;;17.25;10.65;;;;;;;;;;5069789;28;20439;-68
2022/04/18 07:06:43;;;;;;;15.25;10.65;;;;;;;;;;5071526;28;20412;-68
2022/04/18 07:09:09;;;;;;;13.82;10.68;;;;;;;;;;5059479;28;20421;-68
2022/04/18 07:11:36;;;;;;;14.88;10.25;;;;;;;;;;5069369;27;20433;-68
2022/04/18 07:14:02;;;;;;;15.57;10.68;;;11.10;99.90;;;;;;5069754;28;20451;-67
2022/04/18 07:16:30;;;;;;;15.95;10.73;;;;;;;;;;5049364;28;20526;-68
2022/04/18 07:18:58;;;;;;;13.60;10.43;;;;;;;;;;5069181;28;20430;-69
2022/04/18 07:21:25;;;;;;;14.50;10.00;;;;;;;;;;5068666;28;21070;-68
2022/04/18 07:23:51;;;;;;;14.52;10.10;;;;;;;;;;5070105;28;20484;-68
2022/04/18 07:26:17;;;;;;;15.13;11.15;;;;;;;;;;5065737;28;20436;-69
2022/04/18 07:28:43;;;;;;;14.53;10.63;;;;;;;;;;5069677;28;20514;-69
2022/04/18 07:31:09;;;;;;;13.57;9.80;;;12.20;99.90;;;;;;5068141;28;20436;-69
2022/04/18 07:33:35;;;;;;;14.55;9.82;;;12.20;99.90;;;;;;5068794;27;20424;-68
2022/04/18 07:36:02;;;;;;;14.93;10.18;;;;;;;;;;5070590;27;20511;-69
2022/04/18 07:41:14;;;;;;;12.77;9.23;;;;;;;;;;5059178;28;20433;-69
2022/04/18 07:43:40;;;;;;;13.10;9.43;;;;;;;;;;5071043;27;20463;-68
2022/04/18 07:46:06;;;;;;;12.48;9.95;;;;;;;;;;5070877;28;20528;-69
2022/04/18 07:48:32;;;;;;;13.98;10.00;;;;;;;;;;5065019;28;20418;-69
2022/04/18 07:53:43;;;;;;;13.80;9.02;;;;;;;;;;5064134;27;20420;-69
2022/04/18 07:56:09;;;;;;;15.18;9.90;;;;;;;;;;5060271;27;21149;-69
2022/04/18 07:58:35;;;;;;;13.07;9.70;;;13.00;99.90;;;;;;5070941;28;20427;-69
2022/04/18 08:01:01;;;;;;;12.73;9.80;;;;;;;;;;5050723;27;20420;-68
2022/04/18 08:03:27;;;;;;;12.60;9.07;;;;;;;;;;5053285;28;20444;-69
2022/04/18 08:05:56;;;;;;;12.93;9.65;;;;;;;;;;5068944;28;20428;-69
2022/04/18 08:08:23;;;;;;;13.45;10.35;;;;;;;;;;5066306;28;20453;-69
2022/04/18 08:10:49;;;;;;;11.90;9.57;;;13.20;99.90;;;;;;5069508;28;20649;-69
2022/04/18 08:13:15;;;;;;;12.90;9.30;;;;;;;;;;5043151;27;20479;-68
2022/04/18 08:15:41;;;;;;;12.30;9.50;;;;;;;;;;5068626;28;20419;-67
2022/04/18 08:18:07;;;;;;;13.67;9.40;;;;;;;;;;5068371;28;20427;-68
2022/04/18 08:20:33;;;;;;;13.70;9.43;;;14.10;99.90;;;;;;5061759;27;20430;-68
2022/04/18 08:22:59;;;;;;;13.18;9.10;;;;;;;;;;5056636;28;20414;-68
2022/04/18 08:25:25;;;;;;;12.45;9.13;;;;;;;;;;5061868;28;20436;-69
2022/04/18 08:27:51;;;;;;;12.60;8.70;;;;;;;;;;5057596;27;20415;-68
2022/04/18 08:30:17;;;;;;;11.50;8.70;;;;;;;;;;5071923;28;20911;-69
2022/04/18 08:32:44;;;;;;;13.32;9.13;;;;;;;;;;5055382;27;20452;-68
2022/04/18 08:35:10;;;;;;;13.20;8.90;;;;;;;;;;5044664;28;20916;-68
2022/04/18 08:37:37;;;;;;;12.65;9.13;;;;;;;;;;5067427;28;20433;-68
2022/04/18 08:40:04;;;;;;;13.38;8.68;;;;;;;;;;5067846;28;20419;-68
2022/04/18 08:42:34;;;;;;;11.40;8.23;;;;;;;;;;5064315;28;20428;-67
2022/04/18 08:45:04;;;;;;;11.60;8.63;;;;;;;;;;5083023;27;20704;-67
2022/04/18 08:53:02;;;;;;;12.05;8.77;;;;;;;;;;5068341;27;20424;-67
2022/04/18 08:55:29;;;;;;;10.98;8.35;;;;;;;;;;5066732;28;20855;-67
2022/04/18 08:57:55;;;;;;;10.48;8.02;;;;;;;;;;5067754;28;20586;-67
2022/04/18 09:00:21;;;;;;;11.55;8.63;;;;;;;;;;5064037;28;20435;-66
2022/04/18 09:02:48;;;;;;;10.40;8.35;;;;;;;;;;5066956;28;20444;-67
2022/04/18 09:05:14;;;;;;;12.40;8.43;;;;;;;;;;5071181;28;20466;-67
2022/04/18 09:07:44;;;;;;;10.98;8.45;;;;;;;;;;5061611;27;20430;-66
2022/04/18 09:10:13;;;;;;;12.75;8.75;;;;;;;;;;5054449;28;20467;-67
2022/04/18 09:12:42;;;;;;;13.23;8.57;;;;;;;;;;5065739;27;20543;-67
2022/04/18 09:15:09;;;;;;;11.55;8.23;;;;;;;;;;5067405;27;20476;-67
2022/04/18 09:17:36;;;;;;;12.80;8.07;;;;;;;;;;5068789;28;20419;-66
2022/04/18 09:20:10;;;;;;;11.25;8.32;;;;;;;;;;5070433;27;20412;-67
2022/04/18 09:22:46;;;;;;;11.70;8.30;;;;;;;;;;5064399;28;20439;-66
2022/04/18 09:25:13;;;;;;;12.63;8.00;;;;;;;;;;5069656;28;20428;-67
2022/04/18 09:27:39;;;;;;;13.80;8.60;;;;;;;;;;5071679;28;20431;-67
2022/04/18 09:30:07;;;;;;;12.52;8.32;;;16.70;96.70;;;;;;5064360;28;20428;-67
2022/04/18 09:32:34;;;;;;;11.77;8.70;;;;;;;;;;5068113;28;20472;-67
2022/04/18 09:35:04;;;;;;;10.30;8.15;;;;;;;;;;5071101;28;20428;-67
2022/04/18 09:37:31;;;;;;;10.50;8.07;;;;;;;;;;5064870;28;20464;-67
2022/04/18 09:39:57;;;;;;;11.73;8.43;;;;;;;;;;5053260;27;20472;-66
2022/04/18 09:42:28;;;;;;;11.68;8.32;;;;;;;;;;5063263;27;20867;-67
2022/04/18 09:44:54;;;;;;;12.10;7.97;;;;;;;;;;5108118;27;20450;-67
2022/04/18 09:47:22;;;;;;;11.27;8.35;;;17.70;94.90;;;;;;5063182;28;20503;-67
2022/04/18 09:49:49;;;;;;;11.57;7.85;;;;;;;;;;5074202;28;20416;-69
2022/04/18 09:52:17;;;;;;;12.23;7.90;;;17.10;94.70;;;;;;5051405;27;20440;-67
2022/04/18 09:54:53;;;;;;;11.63;8.52;;;;;;;;;;5066058;28;20483;-68
2022/04/18 09:57:23;;;;;;;10.07;7.80;;;;;;;;;;5052163;27;20758;-68
2022/04/18 09:59:51;;;;;;;10.32;7.35;;;;;;;;;;5065775;27;20433;-68
2022/04/18 10:02:17;;;;;;;11.75;8.18;;;18.00;94.60;;;;;;5067625;28;20440;-68
2022/04/18 10:04:43;;;;;;;10.57;7.57;;;;;;;;;;5071935;28;20416;-68
2022/04/18 10:07:13;;;;;;;11.10;7.85;;;;;;;;;;5068311;28;20426;-68
2022/04/18 10:09:42;;;;;;;10.38;7.40;;;;;;;;;;5063179;28;20438;-68
2022/04/18 10:12:09;;;;;;;9.70;7.28;;;;;;;;;;5063856;28;20426;-68
2022/04/18 10:14:35;;;;;;;9.48;7.32;;;;;;;;;;5063213;28;20452;-68
2022/04/18 10:17:02;;;;;;;9.48;6.75;;;;;;;;;;5068856;28;20420;-67
2022/04/18 10:19:47;;;;;;;12.82;7.05;;;;;;;;;;5048217;28;20456;-68
2022/04/18 10:22:43;;;;;;;8.65;6.93;;;18.50;91.60;;;;;;5069773;27;20815;-68
2022/04/18 10:25:27;;;;;;;11.25;7.95;;;;;;;;;;5068259;28;20436;-68
2022/04/18 10:28:05;;;;;;;8.68;6.50;;;;;;;;;;5066026;28;20428;-67
2022/04/18 10:30:53;;;;;;;8.93;6.47;;;;;;;;;;5044472;27;20503;-67
2022/04/18 10:33:20;;;;;;;9.95;6.80;;;;;;;;;;5047666;27;20445;-68
2022/04/18 10:36:02;;;;;;;9.40;6.60;;;;;;;;;;5067371;28;20487;-68
2022/04/18 10:38:33;;;;;;;8.43;5.80;;;19.60;88.60;;;;;;5067520;28;20427;-67
2022/04/18 10:41:18;;;;;;;6.90;5.05;;;;;;;;;;5063199;28;20536;-68
2022/04/18 10:44:00;;;;;;;6.33;5.00;;;19.90;86.30;;;;;;5078440;27;20436;-68
2022/04/18 10:46:26;;;;;;;7.55;5.40;;;;;;;;;;5068167;28;20938;-68
2022/04/18 10:48:56;;;;;;;7.40;5.03;;;;;;;;;;5067563;28;20450;-67
2022/04/18 10:51:26;;;;;;;6.85;4.63;;;;;;;;;;5047762;27;20432;-67
2022/04/18 10:54:04;;;;;;;6.03;4.68;;;;;;;;;;5067241;28;20988;-68
2022/04/18 10:56:46;;;;;;;6.97;5.40;;;20.20;85.10;;;;;;5076147;27;20420;-67
2022/04/18 10:59:14;;;;;;;7.10;5.70;;;;;;;;;;5061905;28;20404;-69
2022/04/18 11:01:40;;;;;;;6.50;4.80;;;;;;;;;;5066145;28;20434;-70
2022/04/18 11:04:11;;;;;;;8.38;4.50;;;;;;;;;;5068311;27;20440;-69
2022/04/18 11:06:40;;;;;;;7.07;4.40;;;20.20;81.80;;;;;;5051301;27;20434;-68
2022/04/18 11:09:08;;;;;;;4.93;3.75;;;20.40;81.00;;;;;;5044842;28;20426;-68
2022/04/18 11:11:35;;;;;;;6.82;4.75;;;;;;;;;;5051642;27;20425;-69
2022/04/18 11:14:12;;;;;;;6.68;4.57;;;19.70;81.30;;;;;;5047929;28;20427;-68
2022/04/18 11:16:47;;;;;;;8.43;4.40;;;;;;;;;;5070370;28;20815;-67
2022/04/18 11:19:16;;;;;;;7.40;5.03;;;20.10;80.40;;;;;;5077151;28;20507;-68
2022/04/18 11:22:04;;;;;;;10.68;4.63;;;20.00;79.70;;;;;;5039997;27;20443;-69
2022/04/18 11:24:43;;;;;;;6.18;4.50;;;;;;;;;;5048267;27;20462;-68
2022/04/18 11:27:10;;;;;;;6.47;4.70;;;;;;;;;;5049526;28;20431;-68
2022/04/18 11:29:37;;;;;;;6.43;4.70;;;20.50;78.90;;;;;;5060426;27;20857;-69
2022/04/18 11:32:04;;;;;;;7.35;4.82;;;20.70;79.80;;;;;;5066098;28;20522;-68
2022/04/18 11:34:31;;;;;;;9.27;5.07;;;20.60;79.70;;;;;;5048650;27;20494;-68
2022/04/18 11:37:00;;;;;;;5.70;4.00;;;20.50;78.40;;;;;;5065024;28;20427;-69
2022/04/18 11:39:42;;;;;;;6.10;4.03;;;;;;;;;;5047202;27;20413;-68
2022/04/18 11:42:07;;;;;;;5.72;4.22;;;19.80;77.50;;;;;;5042797;27;20436;-65
2022/04/18 11:44:40;;;;;;;7.83;4.40;;;20.20;78.00;;;;;;5046087;28;20518;-65
2022/04/18 11:47:14;;;;;;;6.63;4.68;;;19.60;77.50;;;;;;5061877;27;20514;-66
2022/04/18 11:49:42;;;;;;;7.00;5.07;;;19.70;78.00;;;;;;5044759;28;20424;-66
2022/04/18 11:52:18;;;;;;;7.00;4.43;;;20.50;79.30;;;;;;5068220;28;20825;-66
2022/04/18 11:55:03;;;;;;;7.60;4.03;;;20.50;79.30;;;;;;5066352;28;20420;-65
2022/04/18 11:57:35;;;;;;;6.93;3.70;;;21.10;77.90;;;;;;5063411;28;20419;-66
2022/04/18 12:00:06;;;;;;;6.55;4.20;;;20.50;76.70;;;;;;5068591;28;20419;-66
2022/04/18 12:08:07;;;;;;;7.55;4.70;;;20.10;76.70;;;;;;5065525;28;20430;-66
2022/04/18 12:10:36;;;;;;;6.15;4.15;;;19.90;76.20;;;;;;5052249;27;20458;-67
2022/04/18 12:13:09;;;;;;;6.50;4.05;;;20.80;76.70;;;;;;5071321;28;20419;-67
2022/04/18 12:15:36;;;;;;;6.05;3.63;;;21.10;75.60;;;;;;5068221;28;20417;-67
2022/04/18 12:18:10;;;;;;;5.97;3.78;;;21.10;75.30;;;;;;5068932;28;20408;-66
2022/04/18 12:20:41;;;;;;;5.25;3.78;;;20.80;74.80;;;;;;5070956;28;20442;-67
2022/04/18 12:23:13;;;;;;;7.03;4.20;;;20.50;74.90;;;;;;5070133;27;20466;-67
2022/04/18 12:25:43;;;;;;;7.45;4.60;;;20.70;75.50;;;;;;5068971;27;20475;-67
2022/04/18 12:28:09;;;;;;;6.70;4.18;;;21.30;75.80;;;;;;5055873;28;20463;-67
2022/04/18 12:30:35;;;;;;;6.07;3.90;;;20.80;75.00;;;;;;5073189;27;20416;-67
2022/04/18 12:33:24;;;;;;;6.40;4.20;;;21.40;74.30;;;;;;5071744;28;20427;-67
2022/04/18 12:35:52;;;;;;;5.60;3.70;;;22.00;72.80;;;;;;5069727;27;20991;-67
2022/04/18 12:38:28;;;;;;;6.97;4.20;;;21.50;74.70;;;;;;5065216;28;20417;-68
2022/04/18 12:40:55;;;;;;;7.25;4.97;;;21.40;73.60;;;;;;5055856;28;20439;-68
2022/04/18 12:43:27;;;;;;;6.45;4.60;;;21.50;73.80;;;;;;5051643;27;20452;-67
2022/04/18 12:46:14;;;;;;;6.53;4.80;;;21.50;74.40;;;;;;5068207;28;20882;-68
2022/04/18 12:48:48;;;;;;;6.45;4.88;;;21.40;73.80;;;;;;5067027;28;20423;-68
2022/04/18 12:51:14;;;;;;;7.18;4.68;;;21.30;73.50;;;;;;5062874;27;20412;-67
2022/04/18 12:53:50;;;;;;;6.75;4.60;;;21.60;74.30;;;;;;5049033;27;20464;-68
2022/04/18 12:56:24;;;;;;;7.20;4.30;;;22.00;74.50;;;;;;5068841;28;20529;-67
2022/04/18 12:59:03;;;;;;;6.03;4.13;;;22.10;73.50;;;;;;5066721;28;20421;-67
2022/04/18 13:01:34;;;;;;;6.38;4.40;;;21.90;72.60;;;;;;5070870;28;20867;-67
2022/04/18 13:04:01;;;;;;;6.25;4.30;;;22.60;72.80;;;;;;5075004;27;20540;-67
2022/04/18 13:06:34;;;;;;;6.30;4.15;;;22.80;72.20;;;;;;5047167;27;20437;-68
2022/04/18 13:09:08;;;;;;;4.80;4.07;;;23.10;71.70;;;;;;5070462;28;20433;-67
2022/04/18 13:11:42;;;;;;;6.07;3.90;;;23.20;70.40;;;;;;5054597;28;20522;-68
2022/04/18 13:14:10;;;;;;;6.33;4.23;;;22.80;70.70;;;;;;5044393;28;20433;-68
2022/04/18 13:16:37;;;;;;;6.20;4.50;;;22.20;71.00;;;;;;5067066;28;20420;-68
2022/04/18 13:19:11;;;;;;;5.95;4.00;;;21.60;71.20;;;;;;5066749;28;20530;-68
2022/04/18 13:21:38;;;;;;;5.70;4.15;;;22.00;72.00;;;;;;5048883;27;20439;-68
2022/04/18 13:24:05;;;;;;;6.70;4.15;;;22.60;70.50;;;;;;5070995;28;20436;-67
2022/04/18 13:26:32;;;;;;;5.63;3.90;;;23.00;70.10;;;;;;5045596;27;20461;-67
2022/04/18 13:28:58;;;;;;;5.80;4.30;;;22.70;70.90;;;;;;5062807;27;20435;-68
2022/04/18 13:31:25;;;;;;;6.88;4.20;;;22.50;70.60;;;;;;5068295;27;20518;-69
2022/04/18 13:33:51;;;;;;;6.80;4.53;;;22.70;71.30;;;;;;5067386;27;20455;-69
2022/04/18 13:39:06;;;;;;;5.90;4.35;;;23.50;68.70;;;;;;5065556;28;20428;-69
2022/04/18 13:41:33;;;;;;;5.82;4.32;;;21.70;70.20;;;;;;5065095;27;20843;-66
2022/04/18 13:43:59;;;;;;;6.00;4.10;;;21.60;72.20;;;;;;5077076;27;20424;-68
2022/04/18 13:46:26;;;;;;;6.20;4.20;;;21.80;72.80;;;;;;5064142;28;20476;-68
2022/04/18 13:48:52;;;;;;;5.75;4.35;;;21.70;73.00;;;;;;5067615;27;20433;-68
2022/04/18 13:51:20;;;;;;;6.20;4.30;;;21.20;73.00;;;;;;5066734;28;20420;-68
2022/04/18 13:53:46;;;;;;;6.32;4.00;;;21.90;74.50;;;;;;5064054;27;20435;-67
2022/04/18 13:56:12;;;;;;;10.35;4.43;;;21.60;74.60;;;;;;5061310;28;20859;-69
2022/04/18 13:58:38;;;;;;;7.13;4.40;;;21.70;73.80;;;;;;5051663;28;20466;-68
2022/04/18 14:01:04;;;;;;;6.22;4.63;;;21.60;73.30;;;;;;5066174;27;20475;-67
2022/04/18 14:03:31;;;;;;;5.78;4.45;;;21.90;73.50;;;;;;5057521;27;20464;-67
2022/04/18 14:05:58;;;;;;;7.95;4.88;;;21.70;73.00;;;;;;5071241;28;20407;-68
2022/04/18 14:08:25;;;;;;;8.98;4.63;;;21.90;73.70;;;;;;5063030;27;20496;-67
2022/04/18 14:10:52;;;;;;;9.70;4.97;;;21.60;73.60;;;;;;5062021;27;20506;-68
2022/04/18 14:13:18;;;;;;;6.57;4.90;;;21.50;73.70;;;;;;5077066;27;20414;-67
2022/04/18 14:21:12;;;;;;;7.85;4.90;;;21.70;74.10;;;;;;5066745;27;20413;-67
2022/04/18 14:23:41;;;;;;;7.75;5.05;;;;;;;;;;5060219;27;20457;-67
2022/04/18 14:26:07;;;;;;;6.82;4.70;;;;;;;;;;5061951;27;20410;-67
2022/04/18 14:28:33;;;;;;;6.43;4.32;;;21.70;74.20;;;;;;5072802;28;20432;-67
2022/04/18 14:30:59;;;;;;;7.13;4.50;;;21.70;74.20;;;;;;5043267;27;20509;-66